createdAt,value
2022-11-05T00:03:14.281Z,10.80
2022-11-05T00:08:39.073Z,11.40
2022-11-05T00:14:03.989Z,11.40
2022-11-05T00:19:10.286Z,10.70
2022-11-05T00:30:30.712Z,11.70
2022-11-05T00:35:36.676Z,11.30
2022-11-05T00:40:43.393Z,10.90
2022-11-05T00:45:49.432Z,11.20
2022-11-05T00:50:55.466Z,11.50
2022-11-05T00:56:02.092Z,10.90
2022-11-05T01:01:10.144Z,10.80
2022-11-05T01:06:18.029Z,11.40
2022-11-05T01:11:33.570Z,10.60
2022-11-05T01:16:40.862Z,10.50
2022-11-05T01:21:47.249Z,11.20
2022-11-05T01:26:53.050Z,11.20
2022-11-05T01:31:59.040Z,10.30
2022-11-05T01:37:05.371Z,10.70
2022-11-05T01:42:19.928Z,11.40
2022-11-05T01:47:50.323Z,10.90
2022-11-05T01:53:02.726Z,10.70
2022-11-05T01:58:13.064Z,11.80
2022-11-05T02:03:19.861Z,11.30
2022-11-05T02:08:38.025Z,12.40
2022-11-05T02:13:44.577Z,11.20
2022-11-05T02:18:59.335Z,11.20
2022-11-05T02:24:41.669Z,12.20
2022-11-05T02:30:12.636Z,11.80
2022-11-05T02:35:28.672Z,11.10
2022-11-05T02:40:43.285Z,11.90
2022-11-05T02:46:00.509Z,13.30
2022-11-05T02:51:15.037Z,13.70
2022-11-05T02:56:24.690Z,12.00
2022-11-05T03:01:31.017Z,13.70
2022-11-05T03:06:49.582Z,13.50
2022-11-05T03:12:06.268Z,15.90
2022-11-05T03:17:27.310Z,15.60
2022-11-05T03:22:38.678Z,18.20
2022-11-05T03:27:48.632Z,13.70
2022-11-05T03:32:59.322Z,14.50
2022-11-05T03:38:11.003Z,13.50
2022-11-05T03:43:19.423Z,11.80
2022-11-05T03:48:28.685Z,13.40
2022-11-05T03:53:41.228Z,13.80
2022-11-05T03:58:48.060Z,13.60
2022-11-05T04:03:54.041Z,12.70
2022-11-05T04:09:18.751Z,12.90
2022-11-05T04:14:26.362Z,14.60
2022-11-05T04:19:51.160Z,13.10
2022-11-05T04:24:57.197Z,12.60
2022-11-05T04:30:19.060Z,12.20
2022-11-05T04:35:25.760Z,13.70
2022-11-05T04:40:32.246Z,14.30
2022-11-05T04:45:38.053Z,14.10
2022-11-05T04:50:44.163Z,15.30
2022-11-05T04:55:50.041Z,14.60
2022-11-05T05:00:55.956Z,14.70
2022-11-05T05:06:03.900Z,14.10
2022-11-05T05:11:14.216Z,13.20
2022-11-05T05:16:22.454Z,14.50
2022-11-05T05:21:41.299Z,14.60
2022-11-05T05:26:50.415Z,14.30
2022-11-05T05:31:56.252Z,13.80
2022-11-05T05:37:02.299Z,14.60
2022-11-05T05:42:08.440Z,15.50
2022-11-05T05:47:14.857Z,15.80
2022-11-05T05:52:21.106Z,14.40
2022-11-05T05:57:26.885Z,14.30
2022-11-05T06:02:33.448Z,16.70
2022-11-05T06:07:39.545Z,15.60
2022-11-05T06:12:45.649Z,16.70
2022-11-05T06:17:51.519Z,15.40
2022-11-05T06:22:58.157Z,15.20
2022-11-05T06:28:06.941Z,16.60
2022-11-05T06:33:13.382Z,18.80
2022-11-05T06:38:20.092Z,15.20
2022-11-05T06:43:26.205Z,18.80
2022-11-05T06:49:25.948Z,15.80
2022-11-05T06:54:31.811Z,15.80
2022-11-05T06:59:38.253Z,19.10
2022-11-05T07:04:44.033Z,18.20
2022-11-05T07:09:53.478Z,18.40
2022-11-05T07:14:59.658Z,18.60
2022-11-05T07:20:07.811Z,19.00
2022-11-05T07:25:13.982Z,17.70
2022-11-05T07:30:19.978Z,18.30
2022-11-05T07:35:26.497Z,16.30
2022-11-05T07:40:32.658Z,18.70
2022-11-05T07:45:38.606Z,33.20
2022-11-05T07:50:44.705Z,20.00
2022-11-05T07:55:52.592Z,18.30
2022-11-05T08:00:59.962Z,20.70
2022-11-05T08:06:06.429Z,19.00
2022-11-05T08:11:13.304Z,15.00
2022-11-05T08:16:19.192Z,18.10
2022-11-05T08:21:25.504Z,19.30
2022-11-05T08:26:31.380Z,21.10
2022-11-05T08:31:37.696Z,22.80
2022-11-05T08:36:46.489Z,37.40
2022-11-05T08:41:52.368Z,28.80
2022-11-05T08:46:58.872Z,20.60
2022-11-05T08:52:05.593Z,22.30
2022-11-05T08:57:11.645Z,19.30
2022-11-05T09:02:17.603Z,19.60
2022-11-05T09:07:23.689Z,18.60
2022-11-05T09:12:29.729Z,18.70
2022-11-05T09:17:35.928Z,18.00
2022-11-05T09:22:43.457Z,19.60
2022-11-05T09:27:50.306Z,26.10
2022-11-05T09:32:56.409Z,23.50
2022-11-05T09:38:02.497Z,16.80
2022-11-05T09:43:16.075Z,18.70
2022-11-05T09:48:27.982Z,19.40
2022-11-05T09:58:45.391Z,20.60
2022-11-05T10:03:55.613Z,23.70
2022-11-05T10:09:07.638Z,21.80
2022-11-05T10:14:19.572Z,21.50
2022-11-05T10:19:31.072Z,20.00
2022-11-05T10:24:39.571Z,21.70
2022-11-05T10:29:47.328Z,32.70
2022-11-05T10:34:55.248Z,32.30
2022-11-05T10:40:01.627Z,20.80
2022-11-05T10:45:21.197Z,23.90
2022-11-05T10:50:29.589Z,23.60
2022-11-05T10:55:38.581Z,23.90
2022-11-05T11:01:00.033Z,21.50
2022-11-05T11:06:15.196Z,23.50
2022-11-05T11:11:36.061Z,24.80
2022-11-05T11:16:44.487Z,23.90
2022-11-05T11:22:21.446Z,23.10
2022-11-05T11:27:34.012Z,23.90
2022-11-05T11:32:41.360Z,25.30
2022-11-05T11:37:48.870Z,23.80
2022-11-05T11:42:58.249Z,23.60
2022-11-05T11:48:12.319Z,24.20
2022-11-05T11:53:44.210Z,24.80
2022-11-05T11:58:52.518Z,22.30
2022-11-05T12:04:07.760Z,23.20
2022-11-05T12:09:23.242Z,25.00
2022-11-05T12:14:41.224Z,29.90
2022-11-05T12:20:20.325Z,26.90
2022-11-05T12:25:54.535Z,42.20
2022-11-05T12:31:11.729Z,30.50
2022-11-05T12:36:30.852Z,28.40
2022-11-05T12:41:46.517Z,26.30
2022-11-05T12:47:04.816Z,27.80
2022-11-05T12:52:30.362Z,26.80
2022-11-05T12:57:41.242Z,30.00
2022-11-05T13:02:54.973Z,30.20
2022-11-05T13:08:07.768Z,29.30
2022-11-05T13:13:19.218Z,29.30
2022-11-05T13:18:30.040Z,29.90
2022-11-05T13:23:44.506Z,29.00
2022-11-05T13:28:55.637Z,27.50
2022-11-05T13:34:06.244Z,27.80
2022-11-05T13:39:20.032Z,31.30
2022-11-05T13:44:47.532Z,38.70
2022-11-05T13:50:39.174Z,36.90
2022-11-05T13:55:57.720Z,33.70
2022-11-05T14:01:16.258Z,29.50
2022-11-05T14:06:28.693Z,30.70
2022-11-05T14:11:38.334Z,27.70
2022-11-05T14:16:51.560Z,28.10
2022-11-05T14:21:58.340Z,27.90
2022-11-05T14:27:41.416Z,33.50
2022-11-05T14:32:50.522Z,37.50
2022-11-05T14:37:58.708Z,31.90
2022-11-05T14:43:07.868Z,28.30
2022-11-05T14:48:35.732Z,25.80
2022-11-05T14:53:42.535Z,26.40
2022-11-05T14:58:48.699Z,27.10
2022-11-05T15:04:17.774Z,26.70
2022-11-05T15:09:34.253Z,26.00
2022-11-05T15:14:51.336Z,27.10
2022-11-05T15:20:10.562Z,29.80
2022-11-05T15:25:22.851Z,26.60
2022-11-05T15:30:29.297Z,25.20
2022-11-05T15:35:42.221Z,25.60
2022-11-05T15:40:56.246Z,29.80
2022-11-05T15:46:07.586Z,30.50
2022-11-05T15:51:14.667Z,25.00
2022-11-05T15:56:26.377Z,25.90
2022-11-05T16:01:35.578Z,26.10
2022-11-05T16:06:44.852Z,25.90
2022-11-05T16:12:11.456Z,26.70
2022-11-05T16:17:22.014Z,24.70
2022-11-05T16:22:46.221Z,25.10
2022-11-05T16:27:52.263Z,26.90
2022-11-05T16:33:06.142Z,26.80
2022-11-05T16:38:14.217Z,24.90
2022-11-05T16:43:22.684Z,25.80
2022-11-05T16:48:28.906Z,26.30
2022-11-05T16:53:34.721Z,28.20
2022-11-05T16:58:42.714Z,26.80
2022-11-05T17:03:50.489Z,27.70
2022-11-05T17:08:56.518Z,29.50
2022-11-05T17:14:02.355Z,33.20
2022-11-05T17:19:09.698Z,30.70
2022-11-05T17:24:15.577Z,38.10
2022-11-05T17:29:21.545Z,36.20
2022-11-05T17:34:27.864Z,36.20
2022-11-05T17:39:33.945Z,33.20
2022-11-05T17:44:40.569Z,26.90
2022-11-05T17:49:46.495Z,31.20
2022-11-05T17:54:52.471Z,53.00
2022-11-05T17:59:58.416Z,31.30
2022-11-05T18:05:05.102Z,40.50
2022-11-05T18:10:11.989Z,27.70
2022-11-05T18:15:18.592Z,33.40
2022-11-05T18:20:24.922Z,36.10
2022-11-05T18:25:31.064Z,30.80
2022-11-05T18:30:39.412Z,26.70
2022-11-05T18:35:46.314Z,37.90
2022-11-05T18:40:52.393Z,32.30
2022-11-05T18:45:58.454Z,28.10
2022-11-05T18:51:09.268Z,26.70
2022-11-05T18:56:17.712Z,26.20
2022-11-05T19:01:27.371Z,28.50
2022-11-05T19:06:35.399Z,30.50
2022-11-05T19:11:41.766Z,24.20
2022-11-05T19:16:47.839Z,25.00
2022-11-05T19:21:53.962Z,25.00
2022-11-05T19:26:59.730Z,22.60
2022-11-05T19:32:06.376Z,18.50
2022-11-05T19:37:12.396Z,18.10
2022-11-05T19:42:18.389Z,17.10
2022-11-05T19:47:24.319Z,15.80
2022-11-05T19:52:30.694Z,15.00
2022-11-05T19:57:38.589Z,14.60
2022-11-05T20:02:46.988Z,16.80
2022-11-05T20:07:53.397Z,15.20
2022-11-05T20:12:59.570Z,14.60
2022-11-05T20:18:06.057Z,13.00
2022-11-05T20:23:12.185Z,13.60
2022-11-05T20:28:18.195Z,13.10
2022-11-05T20:33:24.758Z,13.00
2022-11-05T20:38:31.035Z,13.10
2022-11-05T20:43:37.352Z,12.10
2022-11-05T20:48:43.962Z,13.40
2022-11-05T20:53:53.772Z,12.60
2022-11-05T20:59:01.348Z,14.30
2022-11-05T21:04:07.524Z,13.00
2022-11-05T21:09:13.425Z,13.20
2022-11-05T21:14:19.719Z,14.10
2022-11-05T21:19:25.819Z,12.40
2022-11-05T21:24:32.206Z,12.20
2022-11-05T21:29:38.228Z,11.60
2022-11-05T21:34:44.384Z,12.70
2022-11-05T21:39:50.588Z,12.10
2022-11-05T21:45:00.192Z,16.40
2022-11-05T21:50:08.077Z,16.50
2022-11-05T21:55:23.336Z,14.40
2022-11-05T22:00:29.627Z,15.70
2022-11-05T22:05:35.604Z,13.70
2022-11-05T22:10:42.285Z,16.20
2022-11-05T22:15:57.424Z,14.90
2022-11-05T22:21:03.374Z,16.90
2022-11-05T22:26:09.205Z,17.30
2022-11-05T22:31:16.916Z,16.90
2022-11-05T22:36:22.754Z,16.30
2022-11-05T22:41:29.082Z,16.90
2022-11-05T22:46:35.156Z,17.80
2022-11-05T22:51:41.202Z,17.10
2022-11-05T22:56:50.341Z,16.40
2022-11-05T23:01:56.442Z,15.30
2022-11-05T23:07:27.030Z,17.40
2022-11-05T23:17:58.489Z,14.80
2022-11-05T23:23:25.012Z,13.20
2022-11-05T23:28:31.052Z,13.30
2022-11-05T23:33:37.443Z,13.60
2022-11-05T23:38:43.314Z,12.80
2022-11-05T23:44:07.837Z,12.20
2022-11-05T23:49:13.620Z,12.90
2022-11-05T23:54:19.463Z,15.10
2022-11-05T23:59:25.415Z,13.80
